Time;durP1;ratioP1;P1;durP2;ratioP2;P2;SDS_P1;SDS_P2;PMS_P1;PMS_P2;Temp;Humidity;BMP_temperature;BMP_pressure;BME280_temperature;BME280_humidity;BME280_pressure;Samples;Min_cycle;Max_cycle;Signal;HPM_P1;HPM_P2
2023/12/04 00:00:47;;;;;;;17.93;11.00;;;;;;;;;;5056245;28;20476;-70
2023/12/04 00:03:13;;;;;;;14.33;9.73;;;;;;;;;;5055831;28;20489;-70
2023/12/04 00:05:38;;;;;;;17.33;10.20;;;;;;;;;;5056289;28;20446;-71
2023/12/04 00:08:04;;;;;;;13.97;9.20;;;;;;;;;;5055833;28;20422;-70
2023/12/04 00:10:30;;;;;;;15.13;9.77;;;;;;;;;;5056126;28;20422;-69
2023/12/04 00:12:56;;;;;;;13.20;9.77;;;;;;;;;;5055788;28;20878;-70
2023/12/04 00:15:22;;;;;;;14.60;9.77;;;;;;;;;;5055769;28;20423;-69
2023/12/04 00:17:48;;;;;;;16.37;10.43;;;;;;;;;;5055240;28;20450;-70
2023/12/04 00:20:14;;;;;;;14.83;10.33;;;;;;;;;;5056002;28;20470;-70
2023/12/04 00:22:40;;;;;;;14.17;9.47;;;;;;;;;;5055512;28;20410;-70
2023/12/04 00:25:07;;;;;;;12.57;9.27;;;;;;;;;;5055880;28;20410;-70
2023/12/04 00:27:33;;;;;;;12.37;9.53;;;;;;;;;;5055626;28;20421;-69
2023/12/04 00:29:59;;;;;;;14.83;10.10;;;;;;;;;;5055782;28;20427;-70
2023/12/04 00:32:25;;;;;;;14.10;9.30;;;;;;;;;;5055412;28;20441;-70
2023/12/04 00:34:51;;;;;;;10.40;8.67;;;;;;;;;;5055438;28;20418;-70
2023/12/04 00:37:17;;;;;;;15.77;9.40;;;;;;;;;;5055281;28;20419;-70
2023/12/04 00:42:46;;;;;;;12.13;9.33;;;;;;;;;;5055430;28;20398;-70
2023/12/04 00:45:12;;;;;;;14.93;10.30;;;;;;;;;;5055532;28;20414;-69
2023/12/04 00:47:38;;;;;;;14.47;9.90;;;;;;;;;;5055471;28;20454;-69
2023/12/04 00:50:04;;;;;;;10.87;8.70;;;;;;;;;;5055161;28;20855;-70
2023/12/04 00:52:30;;;;;;;11.63;9.10;;;;;;;;;;5054972;28;20419;-70
2023/12/04 00:54:56;;;;;;;12.37;8.97;;;;;;;;;;5055078;28;20410;-70
2023/12/04 00:57:22;;;;;;;11.87;8.57;;;;;;;;;;5054844;28;20418;-70
2023/12/04 00:59:49;;;;;;;10.70;8.67;;;;;;;;;;5055138;28;20462;-70
2023/12/04 01:02:15;;;;;;;10.80;8.93;;;;;;;;;;5054765;28;20423;-70
2023/12/04 01:04:41;;;;;;;9.40;8.40;;;;;;;;;;5054640;28;20519;-71
2023/12/04 01:07:07;;;;;;;13.13;8.77;;;;;;;;;;5054765;28;20934;-69
2023/12/04 01:09:35;;;;;;;10.27;8.03;;;;;;;;;;5055083;28;20426;-70
2023/12/04 01:12:01;;;;;;;12.30;9.47;;;;;;;;;;5054929;28;20418;-70
2023/12/04 01:14:27;;;;;;;11.43;9.47;;;;;;;;;;5054966;28;20978;-70
2023/12/04 01:16:53;;;;;;;13.50;9.53;;;;;;;;;;5054902;28;20419;-70
2023/12/04 01:19:19;;;;;;;12.53;9.03;;;;;;;;;;5054605;28;20477;-70
2023/12/04 01:21:45;;;;;;;13.97;8.80;;;;;;;;;;5054534;28;20472;-70
2023/12/04 01:24:11;;;;;;;14.17;9.27;;;;;;;;;;5054704;28;20465;-70
2023/12/04 01:26:37;;;;;;;15.83;9.93;;;;;;;;;;5055263;28;20442;-70
2023/12/04 01:29:03;;;;;;;11.87;9.00;;;;;;;;;;5053608;28;20782;-69
2023/12/04 01:31:29;;;;;;;14.60;9.77;;;;;;;;;;5054969;28;20758;-69
2023/12/04 01:33:55;;;;;;;15.47;9.50;;;;;;;;;;5054192;28;20422;-70
2023/12/04 01:36:21;;;;;;;15.40;10.13;;;;;;;;;;5054537;28;20453;-70
2023/12/04 01:38:47;;;;;;;15.13;11.47;;;;;;;;;;5054544;28;20410;-70
2023/12/04 01:41:13;;;;;;;13.37;9.97;;;;;;;;;;5054315;28;21052;-70
2023/12/04 01:43:39;;;;;;;15.30;9.47;;;;;;;;;;5054088;28;20799;-70
2023/12/04 01:46:05;;;;;;;10.57;8.30;;;;;;;;;;5054583;28;20423;-70
2023/12/04 01:48:31;;;;;;;13.00;9.13;;;;;;;;;;5054320;28;20495;-70
2023/12/04 01:50:58;;;;;;;13.07;9.20;;;;;;;;;;5054053;28;20442;-70
2023/12/04 01:53:25;;;;;;;14.33;8.80;;;;;;;;;;5054702;28;20431;-70
2023/12/04 01:55:51;;;;;;;17.63;9.83;;;;;;;;;;5054216;28;20423;-70
2023/12/04 01:58:17;;;;;;;12.33;8.57;;;;;;;;;;5053856;28;20473;-70
2023/12/04 02:00:43;;;;;;;10.87;8.20;;;;;;;;;;5054235;28;20957;-70
2023/12/04 02:03:10;;;;;;;15.80;9.13;;;;;;;;;;5053759;28;20484;-70
2023/12/04 02:05:37;;;;;;;10.80;8.47;;;;;;;;;;5053750;28;20418;-70
2023/12/04 02:08:03;;;;;;;8.77;7.97;;;;;;;;;;5053853;28;20410;-70
2023/12/04 02:10:29;;;;;;;8.53;7.60;;;;;;;;;;5053833;28;20411;-70
2023/12/04 02:12:55;;;;;;;10.57;8.47;;;;;;;;;;5053771;28;20936;-70
2023/12/04 02:15:21;;;;;;;9.30;7.93;;;;;;;;;;5053846;28;20422;-70
2023/12/04 02:17:47;;;;;;;11.17;8.37;;;;;;;;;;5053789;28;20410;-70
2023/12/04 02:20:14;;;;;;;12.30;9.50;;;;;;;;;;5053711;28;20472;-70
2023/12/04 02:22:40;;;;;;;11.90;9.20;;;;;;;;;;5053236;28;20774;-70
2023/12/04 02:25:07;;;;;;;14.63;9.17;;;;;;;;;;5053696;28;20509;-70
2023/12/04 02:27:44;;;;;;;10.10;7.90;;;;;;;;;;5053610;28;20419;-70
2023/12/04 02:30:12;;;;;;;10.70;8.13;;;;;;;;;;5053598;28;20432;-71
2023/12/04 02:32:43;;;;;;;11.13;9.27;;;;;;;;;;5053513;28;20406;-70
2023/12/04 02:35:09;;;;;;;11.37;8.87;;;;;;;;;;5053381;28;20410;-70
2023/12/04 02:37:36;;;;;;;20.73;12.50;;;;;;;;;;5053148;28;20409;-71
2023/12/04 02:40:02;;;;;;;33.87;17.20;;;;;;;;;;5053189;28;20470;-70
2023/12/04 02:42:29;;;;;;;11.53;8.70;;;;;;;;;;5053242;28;20485;-70
2023/12/04 02:44:55;;;;;;;9.93;8.43;;;;;;;;;;5051938;28;20426;-69
2023/12/04 02:47:21;;;;;;;16.43;11.30;;;;;;;;;;5053344;28;20421;-70
2023/12/04 02:49:47;;;;;;;29.03;16.73;;;;;;;;;;5053064;28;20548;-70
2023/12/04 02:52:13;;;;;;;42.83;16.47;;;;;;;;;;5052939;28;20419;-69
2023/12/04 02:54:39;;;;;;;26.83;14.40;;;;;;;;;;5053215;28;20442;-70
2023/12/04 02:57:05;;;;;;;45.00;20.37;;;;;;;;;;5053729;28;20575;-70
2023/12/04 03:02:34;;;;;;;13.93;9.83;;;;;;;;;;5052889;28;20476;-70
2023/12/04 03:05:01;;;;;;;15.20;10.00;;;;;;;;;;5053368;28;20900;-70
2023/12/04 03:07:27;;;;;;;9.60;7.90;;;;;;;;;;5053487;28;20505;-70
2023/12/04 03:09:53;;;;;;;10.10;8.00;;;;;;;;;;5052944;28;20797;-70
2023/12/04 03:12:19;;;;;;;11.93;9.57;;;;;;;;;;5052888;28;20494;-71
2023/12/04 03:14:45;;;;;;;11.97;9.60;;;;;;;;;;5052791;28;20521;-70
2023/12/04 03:17:11;;;;;;;13.70;8.97;;;;;;;;;;5052692;28;20471;-70
2023/12/04 03:19:37;;;;;;;12.80;9.33;;;;;;;;;;5053344;28;20962;-70
2023/12/04 03:22:03;;;;;;;10.63;8.13;;;;;;;;;;5052628;28;20826;-70
2023/12/04 03:24:29;;;;;;;9.57;7.60;;;;;;;;;;5052653;28;20786;-70
2023/12/04 03:26:55;;;;;;;10.57;8.50;;;;;;;;;;5052666;28;20422;-70
2023/12/04 03:29:21;;;;;;;11.60;7.67;;;;;;;;;;5052701;28;20453;-70
2023/12/04 03:31:47;;;;;;;15.00;9.63;;;;;;;;;;5052873;28;20418;-70
2023/12/04 03:34:12;;;;;;;11.03;7.20;;;;;;;;;;5052629;28;20479;-70
2023/12/04 03:36:38;;;;;;;9.73;7.87;;;;;;;;;;5052795;28;20426;-69
2023/12/04 03:39:04;;;;;;;8.70;7.30;;;;;;;;;;5052778;28;20914;-70
2023/12/04 03:41:30;;;;;;;7.77;6.93;;;;;;;;;;5053025;28;20891;-70
2023/12/04 03:43:56;;;;;;;8.43;7.07;;;;;;;;;;5052979;28;20901;-70
2023/12/04 03:46:22;;;;;;;6.90;6.30;;;;;;;;;;5052820;28;20900;-70
2023/12/04 03:48:48;;;;;;;7.43;6.73;;;;;;;;;;5052717;28;20406;-70
2023/12/04 03:51:14;;;;;;;10.33;8.00;;;;;;;;;;5052646;28;20506;-70
2023/12/04 03:53:40;;;;;;;9.97;7.27;;;;;;;;;;5056147;28;20421;-70
2023/12/04 03:56:06;;;;;;;13.27;8.37;;;;;;;;;;5056188;28;20830;-70
2023/12/04 03:58:32;;;;;;;13.53;8.27;;;;;;;;;;5056402;28;20422;-70
2023/12/04 04:00:58;;;;;;;10.33;7.77;;;;;;;;;;5056041;28;20561;-70
2023/12/04 04:03:24;;;;;;;11.17;8.20;;;;;;;;;;5055995;28;20497;-70
2023/12/04 04:05:50;;;;;;;7.57;6.70;;;;;;;;;;5056182;28;20442;-70
2023/12/04 04:08:16;;;;;;;9.33;7.17;;;;;;;;;;5056236;28;20414;-69
2023/12/04 04:10:42;;;;;;;7.00;6.33;;;;;;;;;;5056259;28;20453;-70
2023/12/04 04:13:08;;;;;;;12.20;8.33;;;;;;;;;;5056026;28;20414;-70
2023/12/04 04:15:34;;;;;;;9.27;8.37;;;;;;;;;;5055843;28;20414;-70
2023/12/04 04:18:00;;;;;;;10.53;7.20;;;;;;;;;;5056010;28;20417;-70
2023/12/04 04:20:26;;;;;;;8.63;6.90;;;;;;;;;;5054361;28;20482;-71
2023/12/04 04:22:53;;;;;;;9.93;8.70;;;;;;;;;;5055931;28;20406;-69
2023/12/04 04:25:21;;;;;;;10.57;8.47;;;;;;;;;;5055647;28;20422;-70
2023/12/04 04:27:47;;;;;;;11.30;7.73;;;;;;;;;;5055506;28;20958;-70
2023/12/04 04:30:13;;;;;;;13.20;8.30;;;;;;;;;;5055810;28;20513;-70
2023/12/04 04:32:39;;;;;;;10.53;7.53;;;;;;;;;;5055468;28;20898;-69
2023/12/04 04:35:05;;;;;;;8.90;7.40;;;;;;;;;;5055449;28;20426;-70
2023/12/04 04:37:31;;;;;;;8.47;7.10;;;;;;;;;;5055636;28;20422;-70
2023/12/04 04:39:57;;;;;;;8.77;7.83;;;;;;;;;;5055568;28;20489;-70
2023/12/04 04:42:23;;;;;;;13.30;9.73;;;;;;;;;;5055405;28;20506;-70
2023/12/04 04:44:49;;;;;;;8.27;7.40;;;;;;;;;;5055306;28;20430;-70
2023/12/04 04:47:15;;;;;;;14.03;10.03;;;;;;;;;;5055255;28;20414;-70
2023/12/04 04:49:42;;;;;;;12.10;8.83;;;;;;;;;;5055616;28;20911;-69
2023/12/04 04:52:08;;;;;;;10.80;8.50;;;;;;;;;;5055328;28;20509;-70
2023/12/04 04:54:34;;;;;;;9.37;8.40;;;;;;;;;;5055067;28;20513;-70
2023/12/04 04:57:00;;;;;;;13.67;7.60;;;;;;;;;;5055068;28;20418;-70
2023/12/04 04:59:30;;;;;;;9.30;8.30;;;;;;;;;;5054933;28;20474;-70
2023/12/04 05:01:55;;;;;;;12.17;8.10;;;;;;;;;;5055133;28;20513;-70
2023/12/04 05:04:21;;;;;;;14.70;8.70;;;;;;;;;;5054370;28;20556;-71
2023/12/04 05:06:47;;;;;;;12.73;8.77;;;;;;;;;;5055345;28;20894;-70
2023/12/04 05:09:13;;;;;;;13.93;9.07;;;;;;;;;;5054733;28;20410;-70
2023/12/04 05:11:39;;;;;;;9.70;8.77;;;;;;;;;;5054754;28;20426;-70
2023/12/04 05:14:05;;;;;;;14.07;9.60;;;;;;;;;;5054640;28;20517;-69
2023/12/04 05:16:31;;;;;;;11.40;9.00;;;;;;;;;;5054645;28;20480;-71
2023/12/04 05:18:57;;;;;;;9.60;8.27;;;;;;;;;;5054688;28;20410;-70
2023/12/04 05:21:23;;;;;;;12.33;8.70;;;;;;;;;;5053203;28;20492;-70
2023/12/04 05:23:49;;;;;;;11.53;9.40;;;;;;;;;;5054467;28;20407;-70
2023/12/04 05:26:15;;;;;;;13.00;10.20;;;;;;;;;;5055579;28;20907;-70
2023/12/04 05:28:41;;;;;;;11.10;8.47;;;;;;;;;;5054431;28;20768;-71
2023/12/04 05:31:07;;;;;;;11.17;8.83;;;;;;;;;;5054381;28;20477;-70
2023/12/04 05:33:33;;;;;;;13.50;9.53;;;;;;;;;;5054340;28;20430;-70
2023/12/04 05:36:00;;;;;;;12.20;10.07;;;;;;;;;;5054563;28;20429;-70
2023/12/04 05:38:26;;;;;;;14.23;9.63;;;;;;;;;;5054150;28;20930;-70
2023/12/04 05:40:54;;;;;;;19.77;9.97;;;;;;;;;;5054132;28;20473;-70
2023/12/04 05:43:20;;;;;;;13.40;9.87;;;;;;;;;;5054039;28;20423;-70
2023/12/04 05:45:46;;;;;;;14.27;10.63;;;;;;;;;;5054355;28;20426;-70
2023/12/04 05:48:12;;;;;;;12.57;9.83;;;;;;;;;;5054122;28;20903;-70
2023/12/04 05:50:38;;;;;;;17.83;9.90;;;;;;;;;;5054225;28;20426;-70
2023/12/04 05:53:04;;;;;;;15.20;10.53;;;;;;;;;;5053926;28;20442;-70
2023/12/04 05:55:30;;;;;;;13.40;10.80;;;;;;;;;;5053973;28;20480;-70
2023/12/04 05:57:56;;;;;;;15.03;10.20;;;;;;;;;;5053886;28;20417;-70
2023/12/04 06:00:22;;;;;;;18.47;11.97;;;;;;;;;;5053487;28;20558;-70
2023/12/04 06:02:48;;;;;;;13.47;9.37;;;;;;;;;;5053603;28;20894;-70
2023/12/04 06:05:14;;;;;;;21.83;10.87;;;;;;;;;;5053879;28;20898;-70
2023/12/04 06:07:41;;;;;;;14.77;10.10;;;;;;;;;;5053995;28;20407;-71
2023/12/04 06:10:08;;;;;;;12.47;9.67;;;;;;;;;;5053604;28;20910;-70
2023/12/04 06:12:34;;;;;;;12.10;9.03;;;;;;;;;;5053534;28;20415;-71
2023/12/04 06:15:00;;;;;;;13.90;9.50;;;;;;;;;;5053140;28;20472;-70
2023/12/04 06:17:26;;;;;;;15.43;10.23;;;;;;;;;;5053870;28;20418;-70
2023/12/04 06:19:53;;;;;;;11.90;8.93;;;;;;;;;;5053470;28;20833;-70
2023/12/04 06:22:21;;;;;;;14.50;9.80;;;;;;;;;;5053388;28;20918;-70
2023/12/04 06:24:47;;;;;;;13.00;9.90;;;;;;;;;;5053426;28;20446;-70
2023/12/04 06:27:15;;;;;;;9.97;8.97;;;;;;;;;;5053626;28;20513;-71
2023/12/04 06:29:41;;;;;;;10.47;9.30;;;;;;;;;;5053944;28;20410;-70
2023/12/04 06:32:07;;;;;;;15.17;9.87;;;;;;;;;;5053357;28;20437;-70
2023/12/04 06:34:34;;;;;;;10.70;9.07;;;;;;;;;;5053173;28;21029;-70
2023/12/04 06:37:00;;;;;;;10.80;9.07;;;;;;;;;;5051966;28;20772;-71
2023/12/04 06:39:27;;;;;;;13.27;9.23;;;;;;;;;;5053147;28;20965;-71
2023/12/04 06:41:54;;;;;;;10.83;9.00;;;;;;;;;;5053409;28;20437;-70
2023/12/04 06:44:20;;;;;;;15.20;9.43;;;;;;;;;;5052974;28;20414;-69
2023/12/04 06:46:50;;;;;;;18.17;11.70;;;;;;;;;;5053127;28;20429;-70
2023/12/04 06:49:17;;;;;;;13.50;10.10;;;;;;;;;;5053867;28;20417;-70
2023/12/04 06:51:43;;;;;;;15.50;10.50;;;;;;;;;;5052908;28;20788;-70
2023/12/04 06:54:09;;;;;;;12.80;9.83;;;;;;;;;;5053243;28;20414;-70
2023/12/04 06:56:35;;;;;;;13.50;9.23;;;;;;;;;;5053164;28;20426;-70
2023/12/04 06:59:01;;;;;;;20.13;11.23;;;;;;;;;;5053073;28;20417;-70
2023/12/04 07:01:27;;;;;;;18.73;11.50;;;;;;;;;;5053112;28;20566;-70
2023/12/04 07:03:53;;;;;;;14.00;9.77;;;;;;;;;;5052600;28;20466;-70
2023/12/04 07:06:19;;;;;;;15.10;9.87;;;;;;;;;;5052824;28;20488;-71
2023/12/04 07:08:45;;;;;;;14.67;9.77;;;;;;;;;;5052799;28;20476;-71
2023/12/04 07:11:14;;;;;;;15.50;10.73;;;;;;;;;;5052865;28;21012;-70
2023/12/04 07:13:41;;;;;;;18.73;10.90;;;;;;;;;;5053082;28;20426;-70
2023/12/04 07:16:07;;;;;;;20.17;11.33;;;;;;;;;;5053484;28;20960;-70
2023/12/04 07:18:33;;;;;;;23.60;11.93;;;;;;;;;;5052693;28;20414;-70
2023/12/04 07:20:59;;;;;;;15.40;10.73;;;;;;;;;;5052903;28;20833;-70
2023/12/04 07:23:25;;;;;;;12.07;10.37;;;;;;;;;;5052916;28;20414;-70
2023/12/04 07:25:52;;;;;;;15.33;10.57;;;;;;;;;;5052737;28;20422;-70
2023/12/04 07:28:18;;;;;;;16.53;9.83;;;;;;;;;;5056658;28;20414;-70
2023/12/04 07:30:44;;;;;;;10.30;9.20;;;;;;;;;;5055389;28;20873;-70
2023/12/04 07:33:10;;;;;;;18.97;9.67;;;;;;;;;;5056390;28;20522;-70
2023/12/04 07:35:39;;;;;;;14.13;10.10;;;;;;;;;;5056790;28;20922;-69
2023/12/04 07:38:05;;;;;;;13.83;10.40;;;;;;;;;;5056876;28;20771;-70
2023/12/04 07:40:32;;;;;;;13.73;10.43;;;;;;;;;;5056724;28;20466;-70
2023/12/04 07:42:58;;;;;;;11.63;10.03;;;;;;;;;;5056715;28;20413;-70
2023/12/04 07:45:24;;;;;;;14.70;10.33;;;;;;;;;;5056949;28;20483;-69
2023/12/04 07:47:50;;;;;;;12.93;8.60;;;;;;;;;;5056378;28;20956;-69
2023/12/04 07:50:16;;;;;;;14.60;10.33;;;;;;;;;;5056577;28;20460;-70
2023/12/04 07:52:43;;;;;;;13.83;9.57;;;;;;;;;;5056642;28;20418;-69
2023/12/04 07:55:09;;;;;;;14.47;10.47;;;;;;;;;;5056311;28;20410;-70
2023/12/04 07:57:35;;;;;;;13.43;9.30;;;;;;;;;;5056486;28;20762;-70
2023/12/04 08:00:01;;;;;;;13.13;9.60;;;;;;;;;;5056321;28;20528;-70
2023/12/04 08:02:27;;;;;;;14.90;9.60;;;;;;;;;;5054851;28;20430;-70
2023/12/04 08:04:53;;;;;;;16.33;10.07;;;;;;;;;;5056024;28;20837;-70
2023/12/04 08:07:19;;;;;;;11.57;10.37;;;;;;;;;;5055995;28;20403;-70
2023/12/04 08:09:45;;;;;;;16.20;10.53;;;;;;;;;;5056471;28;20418;-70
2023/12/04 08:12:11;;;;;;;11.50;9.00;;;;;;;;;;5056070;28;20512;-70
2023/12/04 08:14:37;;;;;;;12.50;8.80;;;;;;;;;;5055841;28;20659;-70
2023/12/04 08:17:03;;;;;;;15.20;10.10;;;;;;;;;;5056089;28;20475;-69
2023/12/04 08:19:29;;;;;;;12.97;9.50;;;;;;;;;;5055693;28;20458;-70
2023/12/04 08:21:55;;;;;;;13.33;9.87;;;;;;;;;;5055542;28;20999;-70
2023/12/04 08:24:21;;;;;;;10.73;8.87;;;;;;;;;;5055630;28;20414;-70
2023/12/04 08:26:47;;;;;;;16.70;9.60;;;;;;;;;;5055412;28;20762;-70
2023/12/04 08:29:13;;;;;;;12.60;9.20;;;;;;;;;;5056064;28;20429;-70
2023/12/04 08:31:39;;;;;;;12.20;10.20;;;;;;;;;;5055668;28;20471;-70
2023/12/04 08:34:05;;;;;;;16.00;9.30;;;;;;;;;;5055639;28;20803;-70
2023/12/04 08:36:31;;;;;;;13.37;9.40;;;;;;;;;;5055651;28;20522;-70
2023/12/04 08:38:57;;;;;;;18.20;10.17;;;;;;;;;;5054695;28;20422;-70
2023/12/04 08:41:23;;;;;;;13.10;10.20;;;;;;;;;;5055265;28;20474;-70
2023/12/04 08:43:49;;;;;;;12.40;10.10;;;;;;;;;;5055331;28;20899;-70
2023/12/04 08:46:15;;;;;;;12.97;10.10;;;;;;;;;;5055327;28;20832;-71
2023/12/04 08:48:41;;;;;;;14.70;9.83;;;;;;;;;;5055514;28;20410;-70
2023/12/04 08:51:10;;;;;;;15.13;9.40;;;;;;;;;;5055056;28;20481;-70
2023/12/04 08:53:36;;;;;;;13.30;9.40;;;;;;;;;;5055179;28;20421;-71
2023/12/04 08:56:02;;;;;;;12.23;9.20;;;;;;;;;;5055106;28;20429;-70
2023/12/04 08:58:28;;;;;;;15.07;10.30;;;;;;;;;;5054942;28;20937;-70
2023/12/04 09:00:54;;;;;;;11.80;10.00;;;;;;;;;;5054833;28;21054;-70
2023/12/04 09:03:22;;;;;;;12.77;10.20;;;;;;;;;;5053397;28;20509;-70
2023/12/04 09:05:50;;;;;;;14.67;10.00;;;;;;;;;;5055177;28;20418;-70
2023/12/04 09:08:17;;;;;;;11.60;10.43;;;;;;;;;;5054855;28;20411;-71
2023/12/04 09:10:43;;;;;;;15.87;11.20;;;;;;;;;;5055141;28;20476;-70
2023/12/04 09:13:09;;;;;;;18.57;10.10;;;;;;;;;;5054720;28;20489;-70
2023/12/04 09:15:34;;;;;;;18.17;11.80;;;;;;;;;;5054960;28;20430;-71
2023/12/04 09:18:00;;;;;;;16.23;10.20;;;;;;;;;;5055124;28;20422;-70
2023/12/04 09:20:26;;;;;;;18.23;10.90;;;;;;;;;;5054704;28;20990;-71
2023/12/04 09:22:52;;;;;;;13.70;10.80;;;;;;;;;;5054544;28;20419;-70
2023/12/04 09:25:18;;;;;;;12.13;8.77;;;;;;;;;;5053203;28;20434;-70
2023/12/04 09:27:44;;;;;;;14.97;10.60;;;;;;;;;;5054692;28;20453;-70
2023/12/04 09:30:10;;;;;;;14.80;10.47;;;;;;;;;;5053108;28;20427;-70
2023/12/04 09:32:36;;;;;;;14.90;11.43;;;;;;;;;;5054112;28;20792;-70
2023/12/04 09:35:02;;;;;;;14.00;9.93;;;;;;;;;;5053046;28;20422;-71
2023/12/04 09:37:28;;;;;;;17.20;11.13;;;;;;;;;;5054299;28;20951;-70
2023/12/04 09:39:54;;;;;;;13.23;9.60;;;;;;;;;;5054462;28;20474;-70
2023/12/04 09:42:20;;;;;;;12.47;9.87;;;;;;;;;;5053142;28;20879;-71
2023/12/04 09:44:49;;;;;;;18.90;12.43;;;;;;;;;;5054180;28;20469;-70
2023/12/04 09:47:17;;;;;;;14.20;9.43;;;;;;;;;;5054347;28;20425;-71
2023/12/04 09:49:43;;;;;;;15.40;9.53;;;;;;;;;;5053118;28;20426;-71
2023/12/04 09:52:09;;;;;;;16.00;10.00;;;;;;;;;;5053904;28;20438;-70
2023/12/04 09:54:36;;;;;;;12.00;10.47;;;;;;;;;;5053948;28;20902;-70
2023/12/04 09:57:03;;;;;;;16.33;11.20;;;;;;;;;;5053882;28;20902;-71
2023/12/04 09:59:30;;;;;;;15.20;11.20;;;;;;;;;;5054069;28;20422;-71
2023/12/04 10:01:56;;;;;;;16.63;10.80;;;;;;;;;;5053654;28;20462;-70
2023/12/04 10:04:22;;;;;;;13.10;9.67;;;;;;;;;;5053167;28;20466;-71
2023/12/04 10:06:50;;;;;;;12.17;9.57;;;;;;;;;;5052409;28;20521;-70
2023/12/04 10:09:17;;;;;;;13.77;11.00;;;;;;;;;;5053839;28;20414;-70
2023/12/04 10:11:44;;;;;;;22.10;10.50;;;;;;;;;;5053805;28;20431;-70
2023/12/04 10:14:15;;;;;;;16.00;9.17;;;;;;;;;;5053531;28;20929;-70
2023/12/04 10:16:41;;;;;;;11.50;9.30;;;;;;;;;;5053518;28;20866;-71
2023/12/04 10:19:27;;;;;;;15.67;8.43;;;;;;;;;;5053448;28;20557;-70
2023/12/04 10:21:55;;;;;;;14.67;11.07;;;;;;;;;;5053611;28;20426;-71
2023/12/04 10:24:35;;;;;;;14.90;10.90;;;;;;;;;;5054336;28;20407;-71
2023/12/04 10:27:01;;;;;;;17.67;10.80;;;;;;;;;;5053589;28;20414;-70
2023/12/04 10:29:29;;;;;;;13.87;9.90;;;;;;;;;;5053727;28;20403;-70
2023/12/04 10:31:55;;;;;;;13.77;10.33;;;;;;;;;;5053397;28;20425;-70
2023/12/04 10:34:25;;;;;;;13.47;9.50;;;;;;;;;;5053374;28;20450;-70
2023/12/04 10:36:51;;;;;;;20.47;10.10;;;;;;;;;;5053758;28;20410;-70
2023/12/04 10:39:17;;;;;;;11.93;9.37;;;;;;;;;;5053134;28;20816;-70
2023/12/04 10:41:44;;;;;;;10.67;9.23;;;;;;;;;;5053445;28;20513;-71
2023/12/04 10:44:10;;;;;;;14.40;9.30;;;;;;;;;;5051766;28;20415;-70
2023/12/04 10:46:37;;;;;;;11.80;10.20;;;;;;;;;;5053561;28;20456;-70
2023/12/04 10:49:04;;;;;;;13.57;9.97;;;;;;;;;;5053172;28;20902;-70
2023/12/04 10:51:30;;;;;;;17.83;11.50;;;;;;;;;;5053277;28;20422;-70
2023/12/04 10:53:56;;;;;;;13.83;10.37;;;;;;;;;;5052818;28;20427;-71
2023/12/04 10:56:29;;;;;;;15.30;10.10;;;;;;;;;;5053210;28;20479;-70
2023/12/04 10:58:57;;;;;;;10.73;9.23;;;;;;;;;;5052916;28;20448;-71
2023/12/04 11:01:24;;;;;;;11.40;9.80;;;;;;;;;;5052650;28;20474;-71
2023/12/04 11:03:52;;;;;;;23.13;9.43;;;;;;;;;;5052525;28;20820;-70
2023/12/04 11:06:18;;;;;;;13.03;9.87;;;;;;;;;;5053100;28;20414;-70
2023/12/04 11:08:48;;;;;;;13.17;9.70;;;;;;;;;;5052886;28;20622;-71
2023/12/04 11:11:16;;;;;;;13.50;9.80;;;;;;;;;;5053104;28;20419;-70
2023/12/04 11:13:43;;;;;;;13.37;9.60;;;;;;;;;;5052993;28;20417;-71
2023/12/04 11:16:19;;;;;;;14.97;11.60;;;;;;;;;;5052768;28;20478;-71
2023/12/04 11:18:48;;;;;;;15.17;10.43;;;;;;;;;;5053501;28;20754;-71
2023/12/04 11:21:16;;;;;;;15.30;11.13;;;;;;;;;;5052743;28;20500;-70
2023/12/04 11:23:42;;;;;;;16.97;11.17;;;;;;;;;;5052576;28;20430;-71
2023/12/04 11:26:09;;;;;;;15.10;10.37;;;;;;;;;;5052513;28;20419;-73
2023/12/04 11:28:38;;;;;;;14.60;10.30;;;;;;;;;;5052627;28;20493;-70
2023/12/04 11:31:04;;;;;;;19.70;12.90;;;;;;;;;;5052871;28;20418;-70
2023/12/04 11:33:35;;;;;;;15.00;10.90;;;;;;;;;;5053041;28;20559;-70
2023/12/04 11:36:08;;;;;;;11.70;9.87;;;;;;;;;;5052565;28;20452;-70
2023/12/04 11:38:36;;;;;;;16.23;10.70;;;;;;;;;;5052570;28;20414;-70
2023/12/04 11:41:12;;;;;;;19.00;12.13;;;;;;;;;;5052689;28;20474;-71
2023/12/04 11:43:43;;;;;;;20.27;11.27;;;;;;;;;;5052751;28;20502;-70
2023/12/04 11:46:09;;;;;;;27.97;16.10;;;;;;;;;;5052664;28;20403;-70
2023/12/04 11:48:37;;;;;;;28.30;16.50;;;;;;;;;;5052370;28;20411;-71
2023/12/04 11:51:03;;;;;;;21.43;13.60;;;;;;;;;;5053151;28;20429;-71
2023/12/04 11:53:28;;;;;;;26.33;16.37;;;;;;;;;;5052537;28;20419;-70
2023/12/04 11:55:57;;;;;;;34.03;17.80;;;;;;;;;;5052280;28;20502;-71
2023/12/04 11:58:23;;;;;;;26.77;16.70;;;;;;;;;;5052370;28;20937;-70
2023/12/04 12:00:49;;;;;;;23.23;13.57;;;;;;;;;;5051822;28;20458;-71
2023/12/04 12:03:15;;;;;;;19.67;13.60;;;;;;;;;;5050444;28;20466;-71
2023/12/04 12:05:42;;;;;;;24.40;14.87;;;;;;;;;;5052140;28;20467;-70
2023/12/04 12:08:08;;;;;;;33.00;17.67;;;;;;;;;;5052859;28;20410;-70
2023/12/04 12:10:35;;;;;;;29.70;17.60;;;;;;;;;;5052436;28;20425;-70
2023/12/04 12:13:01;;;;;;;25.37;16.20;;;;;;;;;;5053853;28;20833;-70
2023/12/04 12:15:28;;;;;;;31.00;18.23;;;;;;;;;;5055795;28;20460;-70
2023/12/04 12:17:54;;;;;;;30.10;20.10;;;;;;;;;;5055726;28;20941;-70
2023/12/04 12:20:20;;;;;;;27.23;16.87;;;;;;;;;;5055881;28;20470;-71
2023/12/04 12:22:46;;;;;;;36.50;22.37;;;;;;;;;;5055823;28;20525;-70
2023/12/04 12:25:12;;;;;;;42.60;20.87;;;;;;;;;;5055794;28;20419;-70
2023/12/04 12:27:39;;;;;;;73.53;32.83;;;;;;;;;;5055781;28;20786;-70
2023/12/04 12:30:06;;;;;;;84.80;41.77;;;;;;;;;;5055988;28;20426;-70
2023/12/04 12:32:32;;;;;;;30.10;17.07;;;;;;;;;;5054360;28;20537;-70
2023/12/04 12:34:58;;;;;;;53.47;28.37;;;;;;;;;;5055353;28;20426;-70
2023/12/04 12:37:24;;;;;;;39.33;20.27;;;;;;;;;;5055660;28;20426;-70
2023/12/04 12:39:50;;;;;;;27.60;17.10;;;;;;;;;;5055387;28;20470;-71
2023/12/04 12:42:25;;;;;;;49.40;24.00;;;;;;;;;;5055272;28;20979;-70
2023/12/04 12:44:52;;;;;;;34.30;17.00;;;;;;;;;;5055557;28;20418;-70
2023/12/04 12:47:18;;;;;;;22.70;13.90;;;;;;;;;;5055540;28;20576;-70
2023/12/04 12:49:44;;;;;;;21.40;12.30;;;;;;;;;;5055228;28;20438;-70
2023/12/04 12:52:11;;;;;;;23.90;13.70;;;;;;;;;;5055233;28;20840;-70
2023/12/04 12:54:37;;;;;;;12.93;9.70;;;;;;;;;;5055329;28;20457;-70
2023/12/04 12:57:03;;;;;;;15.80;10.43;;;;;;;;;;5055435;28;20435;-70
2023/12/04 12:59:29;;;;;;;14.10;9.73;;;;;;;;;;5055142;28;20425;-70
2023/12/04 13:01:56;;;;;;;10.70;9.10;;;;;;;;;;5054968;28;20438;-70
2023/12/04 13:04:23;;;;;;;12.50;9.57;;;;;;;;;;5054713;28;20462;-70
2023/12/04 13:06:49;;;;;;;19.60;10.80;;;;;;;;;;5055618;28;20413;-70
2023/12/04 13:09:18;;;;;;;15.70;10.23;;;;;;;;;;5054832;28;20419;-70
2023/12/04 13:11:48;;;;;;;13.20;9.47;;;;;;;;;;5054623;28;20403;-74
2023/12/04 13:14:14;;;;;;;12.30;9.30;;;;;;;;;;5054603;28;20549;-70
2023/12/04 13:16:40;;;;;;;13.93;9.80;;;;;;;;;;5054802;28;20402;-69
2023/12/04 13:22:09;;;;;;;20.43;12.20;;;;;;;;;;5054511;28;20468;-71
2023/12/04 13:24:35;;;;;;;21.40;11.63;;;;;;;;;;5054195;28;20419;-70
2023/12/04 13:27:01;;;;;;;116.13;21.57;;;;;;;;;;5054634;28;20488;-70
2023/12/04 13:29:27;;;;;;;19.40;9.90;;;;;;;;;;5054816;28;20836;-70
2023/12/04 13:31:53;;;;;;;21.23;14.00;;;;;;;;;;5054709;28;20449;-70
2023/12/04 13:34:19;;;;;;;14.90;10.27;;;;;;;;;;5054591;28;20424;-70
2023/12/04 13:36:45;;;;;;;13.40;9.50;;;;;;;;;;5054492;28;20426;-70
2023/12/04 13:39:16;;;;;;;12.03;8.50;;;;;;;;;;5054350;28;20418;-70
2023/12/04 13:44:27;;;;;;;9.07;8.10;;;;;;;;;;5054708;28;20397;-70
2023/12/04 13:46:53;;;;;;;14.90;9.97;;;;;;;;;;5054160;28;20418;-70
2023/12/04 13:49:19;;;;;;;13.13;9.30;;;;;;;;;;5054495;28;20450;-70
2023/12/04 13:51:48;;;;;;;9.77;7.30;;;;;;;;;;5054102;28;20421;-70
2023/12/04 13:54:21;;;;;;;12.83;9.17;;;;;;;;;;5054268;28;20434;-70
2023/12/04 13:56:54;;;;;;;9.13;8.23;;;;;;;;;;5052617;28;20449;-70
2023/12/04 13:59:24;;;;;;;8.13;7.33;;;;;;;;;;5052738;28;20555;-69
2023/12/04 14:01:51;;;;;;;11.27;8.37;;;;;;;;;;5053875;28;20453;-69
2023/12/04 14:04:17;;;;;;;9.50;8.40;;;;;;;;;;5053636;28;20490;-70
2023/12/04 14:06:43;;;;;;;12.70;8.47;;;;;;;;;;5053651;28;20422;-70
2023/12/04 14:09:14;;;;;;;14.80;8.97;;;;;;;;;;5053815;28;20415;-70
2023/12/04 14:11:43;;;;;;;13.93;9.00;;;;;;;;;;5053984;28;20927;-70
2023/12/04 14:14:09;;;;;;;9.57;8.13;;;;;;;;;;5053546;28;20420;-70
2023/12/04 14:16:35;;;;;;;12.10;8.97;;;;;;;;;;5053832;28;20513;-70
2023/12/04 14:19:01;;;;;;;10.87;8.47;;;;;;;;;;5053424;28;20479;-70
2023/12/04 14:21:28;;;;;;;10.00;8.10;;;;;;;;;;5052080;28;20466;-71
2023/12/04 14:23:54;;;;;;;12.73;9.60;;;;;;;;;;5053116;28;20925;-71
2023/12/04 14:26:20;;;;;;;11.47;9.93;;;;;;;;;;5053664;28;20430;-71
2023/12/04 14:28:46;;;;;;;13.33;9.27;;;;;;;;;;5053611;28;20465;-70
2023/12/04 14:31:12;;;;;;;11.40;8.90;;;;;;;;;;5053308;28;20836;-70
2023/12/04 14:33:38;;;;;;;10.60;8.97;;;;;;;;;;5053477;28;20418;-70